Time;durP1;ratioP1;P1;durP2;ratioP2;P2;SDS_P1;SDS_P2;PMS_P1;PMS_P2;Temp;Humidity;BMP_temperature;BMP_pressure;BME280_temperature;BME280_humidity;BME280_pressure;Samples;Min_cycle;Max_cycle;Signal;HPM_P1;HPM_P2
2023/11/17 00:01:34;;;;;;;7.05;4.90;;;4.60;99.90;;;;;;5065293;28;20040;-80
2023/11/17 00:04:00;;;;;;;7.75;5.10;;;4.60;99.90;;;;;;5075120;28;20592;-80
2023/11/17 00:06:26;;;;;;;5.95;4.63;;;4.60;99.90;;;;;;5070002;28;20562;-80
2023/11/17 00:08:53;;;;;;;8.07;4.97;;;4.70;99.90;;;;;;5078297;28;20040;-80
2023/11/17 00:11:19;;;;;;;7.70;5.00;;;4.60;99.90;;;;;;5061472;28;20033;-80
2023/11/17 00:13:45;;;;;;;7.05;4.63;;;4.60;99.90;;;;;;5066051;28;20024;-80
2023/11/17 00:16:11;;;;;;;7.45;4.50;;;4.60;99.90;;;;;;5075582;28;20036;-80
2023/11/17 00:18:37;;;;;;;5.80;4.32;;;4.60;99.90;;;;;;5073697;28;20029;-80
2023/11/17 00:21:04;;;;;;;6.63;4.47;;;4.60;99.90;;;;;;5064050;28;20028;-80
2023/11/17 00:23:30;;;;;;;7.53;4.60;;;4.50;99.90;;;;;;5060301;28;20040;-80
2023/11/17 00:25:56;;;;;;;8.38;4.65;;;4.50;99.90;;;;;;5055744;28;20604;-79
2023/11/17 00:28:23;;;;;;;7.93;4.60;;;4.50;99.90;;;;;;5055282;28;20145;-80
2023/11/17 00:30:49;;;;;;;8.18;5.28;;;4.50;99.90;;;;;;5067338;28;20390;-79
2023/11/17 00:33:15;;;;;;;8.45;5.18;;;4.50;99.90;;;;;;5051139;28;20035;-80
2023/11/17 00:35:45;;;;;;;7.55;4.78;;;4.40;99.90;;;;;;5070786;28;20025;-80
2023/11/17 00:38:11;;;;;;;8.00;4.70;;;4.40;99.90;;;;;;5053190;28;20060;-79
2023/11/17 00:40:36;;;;;;;9.73;4.90;;;4.40;99.90;;;;;;5069302;28;20157;-80
2023/11/17 00:43:03;;;;;;;8.80;4.90;;;4.40;99.90;;;;;;5057236;28;20040;-81
2023/11/17 00:45:32;;;;;;;7.65;4.38;;;4.40;99.90;;;;;;5061839;28;20032;-79
2023/11/17 00:47:58;;;;;;;8.02;4.47;;;4.30;99.90;;;;;;5057650;28;20469;-80
2023/11/17 00:50:24;;;;;;;8.88;5.00;;;4.30;99.90;;;;;;5058328;28;20056;-82
2023/11/17 00:52:51;;;;;;;8.15;5.10;;;4.30;99.90;;;;;;5064283;28;20032;-79
2023/11/17 00:55:17;;;;;;;9.07;4.95;;;4.30;99.90;;;;;;5027662;28;20096;-79
2023/11/17 00:57:47;;;;;;;8.38;4.78;;;4.30;99.90;;;;;;5058635;28;20043;-81
2023/11/17 01:00:13;;;;;;;7.18;5.03;;;4.30;99.90;;;;;;5058797;28;20038;-81
2023/11/17 01:02:40;;;;;;;9.50;5.03;;;4.30;99.90;;;;;;5060106;28;20662;-80
2023/11/17 01:05:10;;;;;;;8.63;5.35;;;4.30;99.90;;;;;;5058535;28;20037;-81
2023/11/17 01:07:36;;;;;;;9.82;5.72;;;4.30;99.90;;;;;;5062885;28;20041;-79
2023/11/17 01:10:05;;;;;;;10.45;5.55;;;4.20;99.90;;;;;;5050844;28;20080;-80
2023/11/17 01:12:32;;;;;;;7.35;4.78;;;4.20;99.90;;;;;;5056874;28;20067;-80
2023/11/17 01:14:58;;;;;;;8.27;5.70;;;4.20;99.90;;;;;;5061087;28;20094;-78
2023/11/17 01:17:24;;;;;;;12.48;5.97;;;4.20;99.90;;;;;;5067495;28;20051;-80
2023/11/17 01:19:50;;;;;;;9.82;5.57;;;4.20;99.90;;;;;;5037911;28;20041;-81
2023/11/17 01:22:16;;;;;;;13.88;6.22;;;4.20;99.90;;;;;;5061960;28;20044;-80
2023/11/17 01:24:42;;;;;;;10.15;6.15;;;4.20;99.90;;;;;;5067326;28;20495;-80
2023/11/17 01:27:08;;;;;;;11.95;6.38;;;4.20;99.90;;;;;;5073771;28;20677;-80
2023/11/17 01:29:34;;;;;;;16.63;7.10;;;4.20;99.90;;;;;;5029518;28;20028;-81
2023/11/17 01:32:00;;;;;;;14.60;7.15;;;4.20;99.90;;;;;;5074361;28;20063;-81
2023/11/17 01:34:29;;;;;;;13.82;7.30;;;4.30;99.90;;;;;;5061123;28;20505;-82
2023/11/17 01:36:55;;;;;;;15.65;7.45;;;4.30;99.90;;;;;;5051866;28;20499;-80
2023/11/17 01:39:21;;;;;;;15.88;7.63;;;4.30;99.90;;;;;;5059620;28;20065;-80
2023/11/17 01:41:48;;;;;;;9.63;6.43;;;4.30;99.90;;;;;;5063826;28;20504;-79
2023/11/17 01:44:14;;;;;;;15.90;8.25;;;4.30;99.90;;;;;;5050542;28;20122;-80
2023/11/17 01:46:40;;;;;;;13.48;7.60;;;4.30;99.90;;;;;;5057172;28;20502;-80
2023/11/17 01:49:06;;;;;;;11.68;6.90;;;4.40;99.90;;;;;;5061766;28;20047;-80
2023/11/17 01:51:36;;;;;;;14.45;8.25;;;4.40;99.90;;;;;;5023693;28;20032;-79
2023/11/17 01:54:02;;;;;;;18.02;7.68;;;4.40;99.90;;;;;;5062411;28;20056;-81
2023/11/17 01:56:30;;;;;;;15.80;7.70;;;4.40;99.90;;;;;;5061064;28;20029;-80
2023/11/17 01:58:56;;;;;;;15.10;7.80;;;4.50;99.90;;;;;;5061423;28;20033;-81
2023/11/17 02:01:25;;;;;;;13.93;7.90;;;4.50;99.90;;;;;;5061413;28;20029;-81
2023/11/17 02:03:51;;;;;;;15.23;8.15;;;4.50;99.90;;;;;;5050524;28;20611;-81
2023/11/17 02:06:38;;;;;;;11.80;7.30;;;4.50;99.90;;;;;;5031607;28;20536;-79
2023/11/17 02:09:16;;;;;;;15.35;6.63;;;4.50;99.90;;;;;;5053174;28;20025;-80
2023/11/17 02:12:29;;;;;;;12.68;7.95;;;4.50;99.90;;;;;;5033236;28;20434;-80
2023/11/17 02:15:00;;;;;;;13.88;7.32;;;4.50;99.90;;;;;;5059396;28;20037;-80
2023/11/17 02:17:28;;;;;;;12.77;6.93;;;4.50;99.90;;;;;;5056248;28;20164;-83
2023/11/17 02:20:11;;;;;;;16.63;6.55;;;4.50;99.90;;;;;;5045403;28;20505;-80
2023/11/17 02:22:40;;;;;;;14.90;7.50;;;4.50;99.90;;;;;;5055757;28;20394;-82
2023/11/17 02:25:24;;;;;;;14.57;7.07;;;4.50;99.90;;;;;;5055799;28;20463;-81
2023/11/17 02:28:11;;;;;;;12.20;6.90;;;4.50;99.90;;;;;;5067900;28;20493;-80
2023/11/17 02:30:39;;;;;;;11.80;6.72;;;4.50;99.90;;;;;;5059561;28;20032;-81
2023/11/17 02:33:08;;;;;;;11.30;7.18;;;4.40;99.90;;;;;;5048579;28;20189;-80
2023/11/17 02:35:38;;;;;;;8.82;6.50;;;4.50;99.90;;;;;;5054945;28;20021;-80
2023/11/17 02:38:05;;;;;;;10.63;7.00;;;4.40;99.90;;;;;;5064880;28;20386;-80
2023/11/17 02:40:32;;;;;;;13.38;6.65;;;4.50;99.90;;;;;;5068460;28;20036;-80
2023/11/17 02:42:59;;;;;;;14.40;7.28;;;4.40;99.90;;;;;;5057046;28;20104;-82
2023/11/17 02:45:25;;;;;;;15.18;7.45;;;4.40;99.90;;;;;;5057708;28;20040;-80
2023/11/17 02:47:55;;;;;;;11.63;6.40;;;4.40;99.90;;;;;;5061492;28;20043;-79
2023/11/17 02:50:31;;;;;;;14.63;7.90;;;4.40;99.90;;;;;;5062410;28;20378;-82
2023/11/17 02:53:23;;;;;;;11.02;7.22;;;4.40;99.90;;;;;;5060521;28;20044;-80
2023/11/17 02:55:51;;;;;;;13.07;7.05;;;4.40;99.90;;;;;;5061072;28;20092;-80
2023/11/17 02:58:18;;;;;;;14.32;8.00;;;4.40;99.90;;;;;;5055526;28;20038;-79
2023/11/17 03:00:47;;;;;;;10.13;6.28;;;4.40;99.90;;;;;;5060614;28;20041;-79
2023/11/17 03:03:12;;;;;;;12.80;7.70;;;4.40;99.90;;;;;;5055295;28;20037;-79
2023/11/17 03:05:39;;;;;;;13.30;7.60;;;4.40;99.90;;;;;;5056851;28;20044;-79
2023/11/17 03:08:06;;;;;;;12.27;7.97;;;4.40;99.90;;;;;;5059539;28;20036;-79
2023/11/17 03:10:34;;;;;;;12.70;7.38;;;4.40;99.90;;;;;;5066155;28;20024;-79
2023/11/17 03:13:00;;;;;;;12.63;7.03;;;4.40;99.90;;;;;;5057528;28;20033;-80
2023/11/17 03:15:28;;;;;;;13.40;7.93;;;4.40;99.90;;;;;;5058675;28;20078;-81
2023/11/17 03:17:54;;;;;;;12.98;7.53;;;4.40;99.90;;;;;;5049360;28;20123;-80
2023/11/17 03:20:19;;;;;;;12.10;7.28;;;4.40;99.90;;;;;;5062978;28;20059;-80
2023/11/17 03:22:46;;;;;;;10.57;7.00;;;4.40;99.90;;;;;;5068938;28;20060;-81
2023/11/17 03:25:15;;;;;;;14.10;7.88;;;4.40;99.90;;;;;;5058968;28;20044;-79
2023/11/17 03:27:43;;;;;;;11.43;7.55;;;4.30;99.90;;;;;;5065732;28;20133;-80
2023/11/17 03:30:10;;;;;;;15.50;7.32;;;4.30;99.90;;;;;;5055948;28;20379;-79
2023/11/17 03:32:36;;;;;;;12.77;8.13;;;4.30;99.90;;;;;;5059542;28;20067;-81
2023/11/17 03:35:04;;;;;;;12.85;7.35;;;4.30;99.90;;;;;;5059553;28;20044;-80
2023/11/17 03:37:31;;;;;;;12.88;8.15;;;4.30;99.90;;;;;;5056180;28;20037;-82
2023/11/17 03:39:57;;;;;;;12.93;8.32;;;4.30;99.90;;;;;;5058918;28;20040;-79
2023/11/17 03:42:23;;;;;;;14.25;8.73;;;4.20;99.90;;;;;;5059592;28;20025;-80
2023/11/17 03:44:48;;;;;;;11.07;8.00;;;4.20;99.90;;;;;;5055683;28;20043;-79
2023/11/17 03:47:15;;;;;;;11.98;7.28;;;4.20;99.90;;;;;;5061745;28;20061;-80
2023/11/17 03:49:43;;;;;;;16.63;8.20;;;4.20;99.90;;;;;;5071830;28;20037;-80
2023/11/17 03:52:14;;;;;;;13.57;8.23;;;4.10;99.90;;;;;;5055329;28;20029;-79
2023/11/17 03:54:40;;;;;;;14.75;7.65;;;4.10;99.90;;;;;;5063077;28;20032;-79
2023/11/17 03:57:06;;;;;;;13.02;8.20;;;4.00;99.90;;;;;;5064742;28;20629;-79
2023/11/17 03:59:32;;;;;;;13.93;8.85;;;4.00;99.90;;;;;;5061979;28;20037;-80
2023/11/17 04:01:59;;;;;;;13.38;8.80;;;3.90;99.90;;;;;;5064359;28;20064;-79
2023/11/17 04:04:26;;;;;;;17.65;7.68;;;3.90;99.90;;;;;;5052754;28;20067;-80
2023/11/17 04:06:57;;;;;;;11.77;6.82;;;3.80;99.90;;;;;;5057977;28;20429;-79
2023/11/17 04:09:24;;;;;;;12.65;7.57;;;3.80;99.90;;;;;;5054638;28;20079;-79
2023/11/17 04:11:52;;;;;;;10.82;7.95;;;3.80;99.90;;;;;;5057131;28;20079;-80
2023/11/17 04:14:21;;;;;;;10.88;8.00;;;3.70;99.90;;;;;;5065119;28;20067;-79
2023/11/17 04:16:47;;;;;;;11.48;7.85;;;3.70;99.90;;;;;;5059662;28;20017;-80
2023/11/17 04:19:19;;;;;;;13.10;7.93;;;3.70;99.90;;;;;;5059288;28;20045;-79
2023/11/17 04:21:46;;;;;;;12.30;7.57;;;3.60;99.90;;;;;;5063250;28;20033;-79
2023/11/17 04:24:13;;;;;;;12.75;8.23;;;3.60;99.90;;;;;;5054289;28;20473;-80
2023/11/17 04:26:40;;;;;;;13.90;9.18;;;3.60;99.90;;;;;;5060165;28;20040;-79
2023/11/17 04:29:09;;;;;;;13.68;8.45;;;3.60;99.90;;;;;;5065798;28;20036;-79
2023/11/17 04:31:35;;;;;;;16.60;9.00;;;3.60;99.90;;;;;;5052029;28;20128;-80
2023/11/17 04:34:01;;;;;;;17.33;9.18;;;3.60;99.90;;;;;;5050868;28;20033;-80
2023/11/17 04:36:27;;;;;;;19.08;8.77;;;3.50;99.90;;;;;;5055616;28;20685;-79
2023/11/17 04:38:55;;;;;;;13.68;8.55;;;3.50;99.90;;;;;;5058991;28;20509;-79
2023/11/17 04:41:23;;;;;;;15.27;9.13;;;3.50;99.90;;;;;;5065021;28;20033;-80
2023/11/17 04:43:49;;;;;;;12.23;8.30;;;3.50;99.90;;;;;;5058712;28;20036;-79
2023/11/17 04:46:21;;;;;;;14.32;8.45;;;3.40;99.90;;;;;;5052905;28;20043;-79
2023/11/17 04:49:05;;;;;;;11.55;7.95;;;3.40;99.90;;;;;;5054740;28;20064;-79
2023/11/17 04:51:31;;;;;;;13.63;8.40;;;3.40;99.90;;;;;;5053426;28;20036;-80
2023/11/17 04:53:57;;;;;;;15.20;8.30;;;3.30;99.90;;;;;;5055386;28;20029;-79
2023/11/17 04:56:23;;;;;;;10.38;7.10;;;3.30;99.90;;;;;;5053262;28;20491;-79
2023/11/17 04:58:49;;;;;;;11.82;8.07;;;3.30;99.90;;;;;;5051522;28;20036;-79
2023/11/17 05:01:15;;;;;;;12.85;7.85;;;3.20;99.90;;;;;;5068998;28;20058;-80
2023/11/17 05:03:42;;;;;;;12.93;7.28;;;3.20;99.90;;;;;;5068627;28;20067;-80
2023/11/17 05:06:08;;;;;;;10.90;7.13;;;3.10;99.90;;;;;;5051094;28;20458;-79
2023/11/17 05:08:38;;;;;;;14.35;7.72;;;3.10;99.90;;;;;;5053787;28;20449;-79
2023/11/17 05:11:04;;;;;;;12.25;8.10;;;3.10;99.90;;;;;;5077874;28;20402;-80
2023/11/17 05:13:31;;;;;;;12.50;7.95;;;3.00;99.90;;;;;;5074581;28;20079;-79
2023/11/17 05:16:00;;;;;;;11.45;7.30;;;3.00;99.90;;;;;;5061497;28;20037;-79
2023/11/17 05:18:26;;;;;;;11.85;7.28;;;3.00;99.90;;;;;;5052896;28;20116;-80
2023/11/17 05:20:52;;;;;;;14.10;7.53;;;2.90;99.90;;;;;;5069982;28;20112;-79
2023/11/17 05:23:19;;;;;;;11.57;7.97;;;2.90;99.90;;;;;;5064055;28;20107;-79
2023/11/17 05:25:45;;;;;;;13.20;7.70;;;2.90;99.90;;;;;;5055569;28;20102;-80
2023/11/17 05:28:12;;;;;;;11.50;8.07;;;2.90;99.90;;;;;;5058730;28;20124;-80
2023/11/17 05:30:39;;;;;;;14.48;7.43;;;2.90;99.90;;;;;;5060670;28;20032;-79
2023/11/17 05:33:05;;;;;;;12.63;6.97;;;2.80;99.90;;;;;;5060635;28;20038;-79
2023/11/17 05:35:31;;;;;;;11.50;6.68;;;2.80;99.90;;;;;;5054306;28;20099;-79
2023/11/17 05:37:57;;;;;;;17.30;8.35;;;2.80;99.90;;;;;;5053221;28;20020;-79
2023/11/17 05:40:23;;;;;;;13.23;7.85;;;2.80;99.90;;;;;;5063875;28;20040;-79
2023/11/17 05:42:49;;;;;;;13.48;8.30;;;2.70;99.90;;;;;;5053451;28;20043;-79
2023/11/17 05:45:15;;;;;;;9.77;6.97;;;2.70;99.90;;;;;;5053611;28;20033;-79
2023/11/17 05:47:41;;;;;;;9.77;7.20;;;2.70;99.90;;;;;;5057281;28;20036;-79
2023/11/17 05:50:11;;;;;;;8.75;6.68;;;2.70;99.90;;;;;;5060967;28;20033;-79
2023/11/17 05:52:39;;;;;;;23.23;7.68;;;2.60;99.90;;;;;;5057152;28;20037;-79
2023/11/17 05:55:06;;;;;;;10.68;7.07;;;2.60;99.90;;;;;;5070515;28;20024;-79
2023/11/17 05:57:32;;;;;;;15.25;7.32;;;2.60;99.90;;;;;;5078906;28;20024;-79
2023/11/17 05:59:58;;;;;;;18.80;8.45;;;2.60;99.90;;;;;;5065218;28;20063;-79
2023/11/17 06:02:27;;;;;;;22.55;7.28;;;2.60;99.90;;;;;;5067076;28;20407;-79
2023/11/17 06:04:53;;;;;;;16.65;7.68;;;2.50;99.90;;;;;;5079491;28;20480;-81
2023/11/17 06:07:19;;;;;;;28.75;6.85;;;2.50;99.90;;;;;;5067667;28;20033;-80
2023/11/17 06:09:45;;;;;;;11.07;6.75;;;2.50;99.90;;;;;;5060867;28;20123;-80
2023/11/17 06:12:12;;;;;;;13.60;6.45;;;2.50;99.90;;;;;;5061040;28;20144;-79
2023/11/17 06:14:41;;;;;;;9.88;5.90;;;2.50;99.90;;;;;;5060503;28;20048;-79
2023/11/17 06:17:09;;;;;;;69.72;8.10;;;2.40;99.90;;;;;;5052799;28;20029;-81
2023/11/17 06:19:37;;;;;;;20.20;7.10;;;2.40;99.90;;;;;;5059787;28;20050;-80
2023/11/17 06:22:06;;;;;;;31.88;7.13;;;2.40;99.90;;;;;;5060730;28;20116;-80
2023/11/17 06:24:33;;;;;;;10.55;7.28;;;2.30;99.90;;;;;;5058829;28;20544;-80
2023/11/17 06:26:59;;;;;;;10.43;7.10;;;2.40;99.90;;;;;;5058774;28;20037;-79
2023/11/17 06:29:25;;;;;;;16.23;8.82;;;2.40;99.90;;;;;;5064901;28;20431;-79
2023/11/17 06:31:51;;;;;;;23.98;8.13;;;2.40;99.90;;;;;;5059170;28;20059;-81
2023/11/17 06:34:18;;;;;;;12.95;7.95;;;2.50;99.90;;;;;;5058990;28;20040;-80
2023/11/17 06:36:45;;;;;;;17.05;8.07;;;2.50;99.90;;;;;;5054799;28;20037;-79
2023/11/17 06:39:15;;;;;;;13.70;7.97;;;2.60;99.90;;;;;;5060262;28;20115;-79
2023/11/17 06:41:48;;;;;;;13.13;7.65;;;2.60;99.90;;;;;;5058458;28;20063;-79
2023/11/17 06:44:19;;;;;;;14.57;7.00;;;2.70;99.90;;;;;;5058472;28;20059;-80
2023/11/17 06:46:46;;;;;;;14.45;7.28;;;2.80;99.90;;;;;;5056348;28;20813;-80
2023/11/17 06:49:12;;;;;;;22.23;6.35;;;2.80;99.90;;;;;;5062666;28;20032;-79
2023/11/17 06:51:43;;;;;;;32.85;6.57;;;2.90;99.90;;;;;;5073720;28;20044;-80
2023/11/17 06:54:13;;;;;;;74.32;7.38;;;2.90;99.90;;;;;;5063145;28;20025;-80
2023/11/17 06:56:48;;;;;;;7.68;5.57;;;2.90;99.90;;;;;;5062509;28;20497;-80
2023/11/17 06:59:15;;;;;;;;;;;2.90;99.90;;;;;;5057917;28;20057;-80
2023/11/17 07:01:41;;;;;;;9.43;5.60;;;2.90;99.90;;;;;;5056649;28;19912;-79
2023/11/17 07:04:08;;;;;;;9.23;6.07;;;2.90;99.90;;;;;;5053775;28;20386;-80
2023/11/17 07:06:37;;;;;;;10.10;6.05;;;2.90;99.90;;;;;;5056051;28;20037;-79
2023/11/17 07:09:03;;;;;;;18.60;5.70;;;2.90;99.90;;;;;;5062783;28;20701;-80
2023/11/17 07:11:32;;;;;;;21.70;6.05;;;3.00;99.90;;;;;;5061421;28;20044;-79
2023/11/17 07:14:01;;;;;;;17.60;5.88;;;3.00;99.90;;;;;;5055305;28;20499;-80
2023/11/17 07:16:30;;;;;;;8.40;4.78;;;3.00;99.90;;;;;;5067078;28;20024;-80
2023/11/17 07:18:56;;;;;;;45.60;6.25;;;3.00;99.90;;;;;;5058171;28;20064;-79
2023/11/17 07:21:23;;;;;;;38.75;6.03;;;3.00;99.90;;;;;;5061992;28;20029;-79
2023/11/17 07:23:49;;;;;;;11.43;5.93;;;3.00;99.90;;;;;;5073304;28;20338;-79
2023/11/17 07:26:18;;;;;;;10.52;5.45;;;3.00;99.90;;;;;;5064954;28;20055;-79
2023/11/17 07:28:46;;;;;;;16.65;6.28;;;3.10;99.90;;;;;;5059127;28;20037;-80
2023/11/17 07:31:21;;;;;;;10.65;5.18;;;3.00;99.90;;;;;;5058350;28;20029;-80
2023/11/17 07:33:47;;;;;;;14.75;5.93;;;3.00;99.90;;;;;;5059806;28;20645;-81
2023/11/17 07:36:15;;;;;;;7.32;5.35;;;3.00;99.90;;;;;;5058956;28;20021;-80
2023/11/17 07:38:42;;;;;;;10.07;5.25;;;3.10;99.90;;;;;;5059195;28;20582;-79
2023/11/17 07:41:08;;;;;;;9.27;5.65;;;3.00;99.90;;;;;;5061613;28;20387;-78
2023/11/17 07:43:34;;;;;;;9.85;5.43;;;3.10;99.90;;;;;;5062644;28;20040;-78
2023/11/17 07:46:02;;;;;;;8.07;5.35;;;3.10;99.90;;;;;;5060880;28;20364;-79
2023/11/17 07:48:30;;;;;;;9.75;6.68;;;3.10;99.90;;;;;;5064420;28;20013;-79
2023/11/17 07:50:57;;;;;;;8.65;5.90;;;3.10;99.90;;;;;;5053758;28;20037;-79
2023/11/17 07:53:23;;;;;;;25.08;6.63;;;3.10;99.90;;;;;;5063499;28;20028;-78
2023/11/17 07:55:52;;;;;;;9.05;6.25;;;3.10;99.90;;;;;;5051889;28;20025;-79
2023/11/17 07:58:19;;;;;;;22.27;6.22;;;3.10;99.90;;;;;;5055586;28;20434;-80
2023/11/17 08:00:48;;;;;;;13.38;6.05;;;3.10;99.90;;;;;;5061877;28;20028;-81
2023/11/17 08:03:14;;;;;;;12.18;5.55;;;3.10;99.90;;;;;;5057686;28;20044;-80
2023/11/17 08:08:09;;;;;;;15.05;7.47;;;3.10;99.90;;;;;;5064161;28;20033;-80
2023/11/17 08:10:35;;;;;;;11.52;5.75;;;3.10;99.90;;;;;;5071935;28;20045;-80
2023/11/17 08:13:03;;;;;;;11.52;5.85;;;3.10;99.90;;;;;;5059303;28;20045;-81
2023/11/17 08:15:30;;;;;;;9.63;6.00;;;3.10;99.90;;;;;;5072284;28;20033;-81
2023/11/17 08:17:55;;;;;;;9.15;6.07;;;3.10;99.90;;;;;;5062705;28;20033;-81
2023/11/17 08:20:22;;;;;;;6.82;5.25;;;3.10;99.90;;;;;;5067805;28;20055;-81
2023/11/17 08:22:48;;;;;;;10.25;6.15;;;3.20;99.90;;;;;;5064370;28;20033;-80
2023/11/17 08:25:18;;;;;;;8.77;5.80;;;3.20;99.90;;;;;;5082678;28;20402;-81
2023/11/17 08:27:46;;;;;;;7.55;5.90;;;3.20;99.90;;;;;;5058133;28;20567;-81
2023/11/17 08:30:14;;;;;;;13.68;6.15;;;3.10;99.90;;;;;;5074870;28;20032;-81
2023/11/17 08:32:40;;;;;;;10.50;6.22;;;3.10;99.90;;;;;;5065571;28;20112;-81
2023/11/17 08:35:07;;;;;;;7.07;5.50;;;3.20;99.90;;;;;;5063814;28;20504;-81
2023/11/17 08:37:35;;;;;;;8.90;5.93;;;3.20;99.90;;;;;;5060152;28;20089;-81
2023/11/17 08:40:08;;;;;;;9.18;5.53;;;3.30;99.90;;;;;;5062849;28;20266;-81
2023/11/17 08:42:43;;;;;;;9.23;5.72;;;3.40;99.90;;;;;;5059682;28;20066;-81
2023/11/17 08:45:09;;;;;;;11.40;6.22;;;3.50;99.90;;;;;;5055460;28;20029;-81
2023/11/17 08:47:40;;;;;;;11.07;6.68;;;3.50;99.90;;;;;;5057350;28;20742;-81
2023/11/17 08:50:11;;;;;;;9.40;5.53;;;3.50;99.90;;;;;;5071448;28;20117;-81
2023/11/17 08:52:39;;;;;;;11.80;6.15;;;3.60;99.90;;;;;;5053265;28;20109;-81
2023/11/17 08:55:07;;;;;;;12.45;6.63;;;3.60;99.90;;;;;;5065356;28;20020;-81
2023/11/17 08:57:36;;;;;;;9.35;6.28;;;3.70;99.90;;;;;;5058240;28;20021;-81
2023/11/17 09:00:25;;;;;;;11.30;7.03;;;3.70;99.90;;;;;;5063072;28;20056;-82
2023/11/17 09:02:59;;;;;;;11.00;6.20;;;3.80;99.90;;;;;;5070073;28;20457;-80
2023/11/17 09:05:25;;;;;;;15.65;6.25;;;3.80;99.90;;;;;;5066675;28;20028;-81
2023/11/17 09:07:51;;;;;;;11.18;6.30;;;3.80;99.90;;;;;;5036622;28;20040;-81
2023/11/17 09:10:19;;;;;;;9.45;5.60;;;3.80;99.90;;;;;;5064303;28;20040;-81
2023/11/17 09:12:47;;;;;;;11.38;6.38;;;3.90;99.90;;;;;;5069277;28;20025;-81
2023/11/17 09:15:18;;;;;;;9.30;6.18;;;4.00;99.90;;;;;;5061319;28;20085;-81
2023/11/17 09:17:47;;;;;;;12.73;7.00;;;4.10;99.90;;;;;;5050304;28;20103;-81
2023/11/17 09:20:14;;;;;;;13.60;6.15;;;4.20;99.90;;;;;;5067340;28;20044;-81
2023/11/17 09:22:40;;;;;;;8.63;6.40;;;4.20;99.90;;;;;;5063788;28;20369;-81
2023/11/17 09:25:13;;;;;;;10.48;6.40;;;4.30;99.90;;;;;;5059307;28;20032;-81
2023/11/17 09:27:47;;;;;;;9.40;6.45;;;4.30;99.90;;;;;;5058165;28;20032;-81
2023/11/17 09:30:17;;;;;;;9.30;6.05;;;4.30;99.90;;;;;;5069961;28;20520;-81
2023/11/17 09:32:51;;;;;;;9.07;6.07;;;4.40;99.90;;;;;;5066026;28;20119;-81
2023/11/17 09:35:17;;;;;;;12.73;6.47;;;4.40;99.90;;;;;;5046187;28;20017;-81
2023/11/17 09:37:53;;;;;;;9.60;5.60;;;4.50;99.90;;;;;;5070530;28;20166;-81
2023/11/17 09:40:28;;;;;;;13.05;5.90;;;4.50;99.90;;;;;;5058901;28;20483;-82
2023/11/17 09:43:19;;;;;;;10.23;5.60;;;4.60;99.90;;;;;;5067073;28;20379;-81
2023/11/17 09:45:45;;;;;;;7.40;5.35;;;4.60;99.90;;;;;;5065613;28;20071;-81
2023/11/17 09:48:12;;;;;;;7.70;5.43;;;4.60;99.90;;;;;;5058192;28;20021;-80
2023/11/17 09:50:42;;;;;;;9.80;5.53;;;4.60;99.90;;;;;;5068952;28;20044;-80
2023/11/17 09:53:12;;;;;;;7.22;4.65;;;4.60;99.90;;;;;;5059311;28;20029;-80
2023/11/17 09:55:42;;;;;;;9.77;5.15;;;4.60;99.90;;;;;;5061640;28;20021;-81
2023/11/17 09:58:12;;;;;;;8.23;5.22;;;4.60;99.90;;;;;;5079205;28;20019;-82
2023/11/17 10:00:45;;;;;;;7.00;4.75;;;4.70;99.90;;;;;;5070520;28;20043;-80
2023/11/17 10:03:13;;;;;;;9.45;4.65;;;4.70;99.90;;;;;;5068403;28;20025;-79
2023/11/17 10:05:41;;;;;;;6.57;4.53;;;4.70;99.90;;;;;;5066885;28;20020;-80
2023/11/17 10:08:11;;;;;;;4.88;4.03;;;4.60;99.90;;;;;;5070001;28;20032;-80
2023/11/17 10:10:39;;;;;;;6.95;4.22;;;4.60;99.90;;;;;;5065525;28;20044;-81
2023/11/17 10:13:11;;;;;;;5.43;4.35;;;4.60;99.90;;;;;;5064569;28;20024;-81
2023/11/17 10:15:45;;;;;;;5.78;4.05;;;4.60;99.90;;;;;;5057855;28;20059;-82
2023/11/17 10:18:24;;;;;;;5.30;4.22;;;4.60;99.90;;;;;;5060894;28;20028;-81
2023/11/17 10:20:50;;;;;;;6.70;4.20;;;4.60;99.90;;;;;;5067964;28;20028;-81
2023/11/17 10:23:17;;;;;;;7.68;4.18;;;4.60;99.90;;;;;;5073671;28;20034;-82
2023/11/17 10:25:43;;;;;;;5.78;4.07;;;4.60;99.90;;;;;;5066343;28;20115;-81
2023/11/17 10:28:28;;;;;;;5.60;3.85;;;4.70;99.90;;;;;;5070622;28;20043;-82
2023/11/17 10:31:01;;;;;;;8.57;5.38;;;4.70;99.90;;;;;;5061789;28;20033;-81
2023/11/17 10:33:37;;;;;;;7.22;4.55;;;4.60;99.90;;;;;;5063193;28;20060;-81
2023/11/17 10:36:12;;;;;;;5.40;3.55;;;4.70;99.90;;;;;;5063642;28;20082;-83
2023/11/17 10:38:46;;;;;;;5.47;3.55;;;4.60;99.90;;;;;;5065148;28;20052;-83
2023/11/17 10:41:32;;;;;;;5.55;3.60;;;4.60;99.90;;;;;;5061041;28;20066;-82
2023/11/17 10:44:03;;;;;;;4.50;3.05;;;4.70;99.90;;;;;;5071853;28;20032;-81
2023/11/17 10:46:36;;;;;;;6.07;3.20;;;4.70;99.90;;;;;;5071477;28;20037;-82
2023/11/17 10:49:06;;;;;;;3.45;3.13;;;4.70;99.90;;;;;;5068331;28;20033;-82
2023/11/17 10:51:34;;;;;;;9.25;4.72;;;4.70;99.90;;;;;;5069207;28;20048;-84
2023/11/17 10:54:04;;;;;;;5.78;3.65;;;4.70;99.90;;;;;;5067903;28;20029;-83
2023/11/17 10:56:32;;;;;;;4.45;3.38;;;4.80;99.90;;;;;;5070722;28;20029;-83
2023/11/17 10:58:59;;;;;;;3.03;2.63;;;4.80;99.90;;;;;;5073988;28;20092;-83
2023/11/17 11:01:34;;;;;;;3.65;3.03;;;4.70;99.90;;;;;;5068988;28;20037;-83
2023/11/17 11:04:01;;;;;;;4.95;3.45;;;4.80;99.90;;;;;;5073956;28;20136;-83
2023/11/17 11:06:28;;;;;;;5.13;3.42;;;4.80;99.90;;;;;;5077241;28;20648;-83
2023/11/17 11:09:00;;;;;;;5.88;3.30;;;4.80;99.90;;;;;;5068665;28;20017;-84
2023/11/17 11:11:26;;;;;;;4.75;2.67;;;4.80;99.90;;;;;;5090601;28;20024;-83
2023/11/17 11:13:57;;;;;;;5.95;3.58;;;4.80;99.90;;;;;;5072201;28;20040;-84
2023/11/17 11:16:30;;;;;;;7.22;3.95;;;4.90;99.90;;;;;;5072363;28;20244;-83
2023/11/17 11:19:00;;;;;;;6.60;4.00;;;4.90;99.90;;;;;;5065822;28;20021;-80
2023/11/17 11:21:27;;;;;;;6.18;3.42;;;4.90;99.90;;;;;;5051733;28;20078;-82
2023/11/17 11:24:00;;;;;;;5.45;3.60;;;4.80;99.90;;;;;;5070277;28;20059;-82
2023/11/17 11:26:38;;;;;;;5.20;3.25;;;4.80;99.90;;;;;;5063398;28;20033;-81
2023/11/17 11:29:05;;;;;;;4.13;3.17;;;4.80;99.90;;;;;;5058072;28;20068;-83
2023/11/17 11:31:32;;;;;;;6.20;3.78;;;4.90;99.90;;;;;;5060308;28;20040;-83
2023/11/17 11:34:01;;;;;;;4.85;3.58;;;4.90;99.90;;;;;;5068714;28;20032;-81
2023/11/17 11:36:27;;;;;;;4.68;3.22;;;4.90;99.90;;;;;;5060542;28;20044;-82
2023/11/17 11:38:53;;;;;;;4.45;3.20;;;5.00;99.90;;;;;;5061620;28;20032;-82
2023/11/17 11:41:22;;;;;;;3.28;2.97;;;5.00;99.90;;;;;;5054233;28;20035;-83
2023/11/17 11:43:52;;;;;;;5.70;3.67;;;5.00;99.90;;;;;;5086956;28;20036;-83
2023/11/17 11:46:20;;;;;;;7.47;3.47;;;4.90;99.90;;;;;;5064398;28;20122;-83
2023/11/17 11:49:11;;;;;;;6.18;3.70;;;5.00;99.90;;;;;;5050830;28;20032;-83
2023/11/17 11:52:13;;;;;;;4.93;4.07;;;5.00;99.90;;;;;;5058709;28;20029;-83
2023/11/17 11:54:39;;;;;;;4.55;3.22;;;5.00;99.90;;;;;;5044918;28;20052;-83
2023/11/17 11:57:25;;;;;;;6.05;3.70;;;5.10;99.90;;;;;;5075692;28;20467;-83
2023/11/17 11:59:52;;;;;;;5.30;3.85;;;5.10;99.90;;;;;;5059077;28;20116;-84
2023/11/17 12:02:20;;;;;;;7.05;3.33;;;5.00;99.90;;;;;;5057281;28;20021;-82
2023/11/17 12:04:53;;;;;;;3.92;2.90;;;5.00;99.90;;;;;;5041515;28;20032;-83
2023/11/17 12:07:37;;;;;;;4.72;3.10;;;5.00;99.90;;;;;;5057042;28;20032;-83
2023/11/17 12:10:05;;;;;;;3.80;3.03;;;4.90;99.90;;;;;;5037298;28;20103;-83
2023/11/17 12:12:33;;;;;;;3.67;2.55;;;4.90;99.90;;;;;;5039290;28;20038;-82
2023/11/17 12:14:59;;;;;;;4.00;2.75;;;4.90;99.90;;;;;;5040179;28;20457;-82
2023/11/17 12:17:31;;;;;;;4.78;2.70;;;4.90;99.90;;;;;;5045072;28;20122;-83
2023/11/17 12:20:27;;;;;;;3.45;2.80;;;4.80;99.90;;;;;;5044763;28;20112;-83
2023/11/17 12:23:02;;;;;;;4.43;3.22;;;4.70;99.90;;;;;;5066243;28;20033;-82
2023/11/17 12:25:29;;;;;;;4.38;2.55;;;4.70;99.90;;;;;;5015012;28;20036;-82
2023/11/17 12:27:59;;;;;;;5.60;2.75;;;4.70;99.90;;;;;;5037292;28;20044;-83
2023/11/17 12:30:26;;;;;;;3.28;2.35;;;4.70;99.90;;;;;;5049974;28;20033;-81
2023/11/17 12:32:54;;;;;;;5.85;2.80;;;4.70;99.90;;;;;;5030612;28;20030;-81
2023/11/17 12:35:20;;;;;;;5.03;2.70;;;4.80;99.90;;;;;;5030668;28;20025;-81
2023/11/17 12:37:51;;;;;;;4.28;2.80;;;4.80;99.90;;;;;;5044022;28;20067;-81
2023/11/17 12:40:18;;;;;;;3.92;2.70;;;4.80;99.90;;;;;;5045092;28;20029;-83
2023/11/17 12:42:45;;;;;;;2.78;2.28;;;4.80;99.90;;;;;;5028810;28;20029;-84
2023/11/17 12:45:16;;;;;;;3.15;2.67;;;4.80;99.90;;;;;;5025503;28;20057;-80
2023/11/17 12:47:46;;;;;;;3.78;2.47;;;4.80;99.90;;;;;;5037221;28;20456;-82
2023/11/17 12:50:12;;;;;;;3.40;2.70;;;4.80;99.90;;;;;;5047790;28;20045;-82
2023/11/17 12:52:56;;;;;;;4.43;2.55;;;4.80;99.90;;;;;;5045648;28;20091;-81
2023/11/17 12:55:22;;;;;;;3.25;2.55;;;4.70;99.90;;;;;;5046757;28;20024;-81
2023/11/17 12:57:48;;;;;;;4.53;2.70;;;4.60;99.90;;;;;;5047918;28;20044;-81
2023/11/17 13:00:16;;;;;;;3.15;2.35;;;4.60;99.90;;;;;;5047750;28;20032;-81
2023/11/17 13:02:43;;;;;;;6.90;2.78;;;4.50;99.90;;;;;;5054515;28;20040;-81
2023/11/17 13:05:11;;;;;;;5.05;2.53;;;4.50;99.90;;;;;;5051646;28;20033;-80